Check out our new PWSWeather beta!
PWSweather.com
Personal Weather Stations
Station Observations
79674
AfterstegDE 79674

AfterstegDE 79674

Lat: 47.84344, Lon: 7.92844

Elevation: 809

Station Type: Davis Vantage 2 Aktive

www.wetter-aftersteg.de

High Low Average
Temperature 75.4°F24.1°C 50.5°F10.3°C 64.1°F17.8°C
Dew Point 59.2°F15.1°C 47.3°F8.5°C 52.6°F11.4°C
Winds 6.9 mph 11.1 kmh Calm Calm 1.0 mph SW1.6 kmh SW
Wind Gusts 12.1 mph19.5 kmh -- 1.0 mph1.6 kmh
Humidity 90% 41% 68%
Pressure 30.24 in1024.0 mb 30.09 in1019.0 mb -
Precipitation 0.00 in0.0 mm - -
Hour Temp Dew Point Humidity Winds Wind Gusts Pressure Precip Precip Rate Daily Precip Total
12:02 AM 52.3°F11.3°C 48.6°F9.2°C 87% Calm Calm -- 30.25 in1024.4 mb - 0.00 in0.0 mm 0.00 in0.0 mm
12:07 AM 52.3°F11.3°C 48.6°F9.2°C 87% Calm Calm -- 30.24 in1024.0 mb - 0.00 in0.0 mm 0.00 in0.0 mm
12:12 AM 52.2°F11.2°C 48.7°F9.3°C 88% Calm Calm -- 30.24 in1024.0 mb - 0.00 in0.0 mm 0.00 in0.0 mm
12:17 AM 52.3°F11.3°C 48.9°F9.4°C 88% Calm Calm -- 30.24 in1024.0 mb - 0.00 in0.0 mm 0.00 in0.0 mm
12:22 AM 52.2°F11.2°C 48.7°F9.3°C 88% Calm Calm -- 30.24 in1024.0 mb - 0.00 in0.0 mm 0.00 in0.0 mm
12:27 AM 52.0°F11.1°C 48.6°F9.2°C 88% Calm Calm -- 30.24 in1024.0 mb - 0.00 in0.0 mm 0.00 in0.0 mm
12:32 AM 52.2°F11.2°C 48.7°F9.3°C 88% Calm Calm -- 30.24 in1024.0 mb - 0.00 in0.0 mm 0.00 in0.0 mm
12:37 AM 52.0°F11.1°C 48.6°F9.2°C 88% Calm Calm -- 30.24 in1024.0 mb - 0.00 in0.0 mm 0.00 in0.0 mm
12:42 AM 52.0°F11.1°C 48.6°F9.2°C 88% Calm Calm -- 30.24 in1024.0 mb - 0.00 in0.0 mm 0.00 in0.0 mm
12:47 AM 52.0°F11.1°C 48.6°F9.2°C 88% Calm Calm -- 30.24 in1024.0 mb - 0.00 in0.0 mm 0.00 in0.0 mm
12:52 AM 52.0°F11.1°C 48.6°F9.2°C 88% Calm Calm -- 30.24 in1024.0 mb - 0.00 in0.0 mm 0.00 in0.0 mm
12:57 AM 52.0°F11.1°C 48.6°F9.2°C 88% Calm Calm -- 30.24 in1024.0 mb - 0.00 in0.0 mm 0.00 in0.0 mm
01:02 AM 52.0°F11.1°C 48.6°F9.2°C 88% Calm Calm -- 30.24 in1024.0 mb - 0.00 in0.0 mm 0.00 in0.0 mm
01:07 AM 52.0°F11.1°C 48.6°F9.2°C 88% Calm Calm -- 30.24 in1024.0 mb - 0.00 in0.0 mm 0.00 in0.0 mm
01:12 AM 52.0°F11.1°C 48.6°F9.2°C 88% Calm Calm -- 30.24 in1024.0 mb - 0.00 in0.0 mm 0.00 in0.0 mm
01:17 AM 52.0°F11.1°C 48.6°F9.2°C 88% Calm Calm -- 30.24 in1024.0 mb - 0.00 in0.0 mm 0.00 in0.0 mm
01:22 AM 52.0°F11.1°C 48.6°F9.2°C 88% Calm Calm -- 30.24 in1024.0 mb - 0.00 in0.0 mm 0.00 in0.0 mm
01:27 AM 52.0°F11.1°C 48.6°F9.2°C 88% Calm Calm -- 30.24 in1024.0 mb - 0.00 in0.0 mm 0.00 in0.0 mm
01:32 AM 52.2°F11.2°C 48.7°F9.3°C 88% Calm Calm -- 30.23 in1023.7 mb - 0.00 in0.0 mm 0.00 in0.0 mm
01:37 AM 52.0°F11.1°C 48.6°F9.2°C 88% Calm Calm -- 30.23 in1023.7 mb - 0.00 in0.0 mm 0.00 in0.0 mm
01:42 AM 51.6°F10.9°C 48.2°F9.0°C 88% Calm Calm -- 30.23 in1023.7 mb - 0.00 in0.0 mm 0.00 in0.0 mm
01:47 AM 51.8°F11.0°C 48.7°F9.3°C 89% Calm Calm -- 30.23 in1023.7 mb - 0.00 in0.0 mm 0.00 in0.0 mm
01:52 AM 51.8°F11.0°C 48.4°F9.1°C 88% Calm Calm -- 30.23 in1023.7 mb - 0.00 in0.0 mm 0.00 in0.0 mm
01:57 AM 51.6°F10.9°C 48.2°F9.0°C 88% Calm Calm -- 30.23 in1023.7 mb - 0.00 in0.0 mm 0.00 in0.0 mm
02:02 AM 51.6°F10.9°C 48.2°F9.0°C 88% Calm Calm -- 30.23 in1023.7 mb - 0.00 in0.0 mm 0.00 in0.0 mm
02:07 AM 51.4°F10.8°C 48.0°F8.9°C 88% Calm Calm -- 30.23 in1023.7 mb - 0.00 in0.0 mm 0.00 in0.0 mm
02:12 AM 51.6°F10.9°C 48.2°F9.0°C 88% Calm Calm -- 30.23 in1023.7 mb - 0.00 in0.0 mm 0.00 in0.0 mm
02:17 AM 51.3°F10.7°C 47.8°F8.8°C 88% Calm Calm -- 30.22 in1023.4 mb - 0.00 in0.0 mm 0.00 in0.0 mm
02:22 AM 51.4°F10.8°C 48.4°F9.1°C 89% Calm Calm -- 30.22 in1023.4 mb - 0.00 in0.0 mm 0.00 in0.0 mm
02:27 AM 51.6°F10.9°C 48.6°F9.2°C 89% Calm Calm -- 30.23 in1023.7 mb - 0.00 in0.0 mm 0.00 in0.0 mm
02:32 AM 51.4°F10.8°C 48.4°F9.1°C 89% Calm Calm -- 30.23 in1023.7 mb - 0.00 in0.0 mm 0.00 in0.0 mm
02:37 AM 51.3°F10.7°C 48.2°F9.0°C 89% Calm Calm -- 30.22 in1023.4 mb - 0.00 in0.0 mm 0.00 in0.0 mm
02:42 AM 51.4°F10.8°C 48.4°F9.1°C 89% Calm Calm -- 30.22 in1023.4 mb - 0.00 in0.0 mm 0.00 in0.0 mm
02:47 AM 51.4°F10.8°C 48.4°F9.1°C 89% Calm Calm -- 30.22 in1023.4 mb - 0.00 in0.0 mm 0.00 in0.0 mm
02:52 AM 51.6°F10.9°C 48.6°F9.2°C 89% Calm Calm -- 30.22 in1023.4 mb - 0.00 in0.0 mm 0.00 in0.0 mm
02:57 AM 51.3°F10.7°C 48.2°F9.0°C 89% Calm Calm -- 30.22 in1023.4 mb - 0.00 in0.0 mm 0.00 in0.0 mm
03:02 AM 51.3°F10.7°C 48.2°F9.0°C 89% Calm Calm -- 30.22 in1023.4 mb - 0.00 in0.0 mm 0.00 in0.0 mm
03:07 AM 51.3°F10.7°C 48.2°F9.0°C 89% Calm Calm -- 30.22 in1023.4 mb - 0.00 in0.0 mm 0.00 in0.0 mm
03:12 AM 51.1°F10.6°C 48.0°F8.9°C 89% Calm Calm -- 30.22 in1023.4 mb - 0.00 in0.0 mm 0.00 in0.0 mm
03:17 AM 51.1°F10.6°C 48.0°F8.9°C 89% Calm Calm -- 30.22 in1023.4 mb - 0.00 in0.0 mm 0.00 in0.0 mm
03:22 AM 51.3°F10.7°C 48.2°F9.0°C 89% Calm Calm -- 30.22 in1023.4 mb - 0.00 in0.0 mm 0.00 in0.0 mm
03:27 AM 51.1°F10.6°C 48.0°F8.9°C 89% Calm Calm -- 30.22 in1023.4 mb - 0.00 in0.0 mm 0.00 in0.0 mm
03:32 AM 50.9°F10.5°C 47.8°F8.8°C 89% Calm Calm -- 30.22 in1023.4 mb - 0.00 in0.0 mm 0.00 in0.0 mm
03:37 AM 50.7°F10.4°C 47.7°F8.7°C 89% Calm Calm -- 30.22 in1023.4 mb - 0.00 in0.0 mm 0.00 in0.0 mm
03:42 AM 50.7°F10.4°C 47.8°F8.8°C 90% Calm Calm -- 30.22 in1023.4 mb - 0.00 in0.0 mm 0.00 in0.0 mm
03:47 AM 51.1°F10.6°C 48.2°F9.0°C 90% Calm Calm -- 30.22 in1023.4 mb - 0.00 in0.0 mm 0.00 in0.0 mm
03:52 AM 51.1°F10.6°C 48.0°F8.9°C 89% Calm Calm -- 30.22 in1023.4 mb - 0.00 in0.0 mm 0.00 in0.0 mm
03:57 AM 51.1°F10.6°C 48.0°F8.9°C 89% Calm Calm -- 30.21 in1023.0 mb - 0.00 in0.0 mm 0.00 in0.0 mm
04:02 AM 51.1°F10.6°C 48.0°F8.9°C 89% Calm Calm -- 30.21 in1023.0 mb - 0.00 in0.0 mm 0.00 in0.0 mm
04:07 AM 50.9°F10.5°C 47.8°F8.8°C 89% Calm Calm -- 30.22 in1023.4 mb - 0.00 in0.0 mm 0.00 in0.0 mm
04:12 AM 50.9°F10.5°C 47.8°F8.8°C 89% Calm Calm -- 30.22 in1023.4 mb - 0.00 in0.0 mm 0.00 in0.0 mm
04:17 AM 50.9°F10.5°C 47.8°F8.8°C 89% Calm Calm -- 30.22 in1023.4 mb - 0.00 in0.0 mm 0.00 in0.0 mm
04:22 AM 50.9°F10.5°C 47.8°F8.8°C 89% Calm Calm -- 30.22 in1023.4 mb - 0.00 in0.0 mm 0.00 in0.0 mm
04:27 AM 51.1°F10.6°C 48.0°F8.9°C 89% Calm Calm -- 30.22 in1023.4 mb - 0.00 in0.0 mm 0.00 in0.0 mm
04:32 AM 51.1°F10.6°C 48.0°F8.9°C 89% Calm Calm -- 30.22 in1023.4 mb - 0.00 in0.0 mm 0.00 in0.0 mm
04:37 AM 51.1°F10.6°C 48.0°F8.9°C 89% Calm Calm -- 30.22 in1023.4 mb - 0.00 in0.0 mm 0.00 in0.0 mm
04:42 AM 51.1°F10.6°C 48.0°F8.9°C 89% Calm Calm -- 30.22 in1023.4 mb - 0.00 in0.0 mm 0.00 in0.0 mm
04:47 AM 50.7°F10.4°C 47.3°F8.5°C 88% Calm Calm -- 30.22 in1023.4 mb - 0.00 in0.0 mm 0.00 in0.0 mm
04:52 AM 50.7°F10.4°C 47.7°F8.7°C 89% Calm Calm -- 30.22 in1023.4 mb - 0.00 in0.0 mm 0.00 in0.0 mm
04:57 AM 50.7°F10.4°C 47.7°F8.7°C 89% Calm Calm -- 30.22 in1023.4 mb - 0.00 in0.0 mm 0.00 in0.0 mm
05:02 AM 50.5°F10.3°C 47.5°F8.6°C 89% Calm Calm -- 30.22 in1023.4 mb - 0.00 in0.0 mm 0.00 in0.0 mm
05:07 AM 50.5°F10.3°C 47.5°F8.6°C 89% Calm Calm -- 30.22 in1023.4 mb - 0.00 in0.0 mm 0.00 in0.0 mm
05:12 AM 50.7°F10.4°C 47.7°F8.7°C 89% Calm Calm -- 30.22 in1023.4 mb - 0.00 in0.0 mm 0.00 in0.0 mm
05:17 AM 50.7°F10.4°C 47.7°F8.7°C 89% Calm Calm -- 30.22 in1023.4 mb - 0.00 in0.0 mm 0.00 in0.0 mm
05:22 AM 50.7°F10.4°C 47.7°F8.7°C 89% Calm Calm -- 30.22 in1023.4 mb - 0.00 in0.0 mm 0.00 in0.0 mm
05:27 AM 50.7°F10.4°C 47.7°F8.7°C 89% Calm Calm -- 30.22 in1023.4 mb - 0.00 in0.0 mm 0.00 in0.0 mm
05:32 AM 50.9°F10.5°C 47.8°F8.8°C 89% Calm Calm -- 30.22 in1023.4 mb - 0.00 in0.0 mm 0.00 in0.0 mm
05:37 AM 51.3°F10.7°C 48.2°F9.0°C 89% Calm Calm -- 30.22 in1023.4 mb - 0.00 in0.0 mm 0.00 in0.0 mm
05:42 AM 51.3°F10.7°C 47.8°F8.8°C 88% Calm Calm -- 30.22 in1023.4 mb - 0.00 in0.0 mm 0.00 in0.0 mm
05:47 AM 51.4°F10.8°C 48.4°F9.1°C 89% Calm Calm -- 30.22 in1023.4 mb - 0.00 in0.0 mm 0.00 in0.0 mm
05:52 AM 51.4°F10.8°C 48.4°F9.1°C 89% Calm Calm -- 30.22 in1023.4 mb - 0.00 in0.0 mm 0.00 in0.0 mm
05:57 AM 51.4°F10.8°C 48.4°F9.1°C 89% Calm Calm -- 30.22 in1023.4 mb - 0.00 in0.0 mm 0.00 in0.0 mm
06:02 AM 51.6°F10.9°C 48.6°F9.2°C 89% Calm Calm -- 30.22 in1023.4 mb - 0.00 in0.0 mm 0.00 in0.0 mm
06:07 AM 52.0°F11.1°C 48.9°F9.4°C 89% Calm Calm -- 30.22 in1023.4 mb - 0.00 in0.0 mm 0.00 in0.0 mm
06:12 AM 52.3°F11.3°C 49.3°F9.6°C 89% Calm Calm -- 30.22 in1023.4 mb - 0.00 in0.0 mm 0.00 in0.0 mm
06:17 AM 52.3°F11.3°C 48.9°F9.4°C 88% Calm Calm -- 30.22 in1023.4 mb - 0.00 in0.0 mm 0.00 in0.0 mm
06:22 AM 52.9°F11.6°C 49.5°F9.7°C 88% Calm Calm -- 30.22 in1023.4 mb - 0.00 in0.0 mm 0.00 in0.0 mm
06:27 AM 53.2°F11.8°C 49.8°F9.9°C 88% Calm Calm -- 30.22 in1023.4 mb - 0.00 in0.0 mm 0.00 in0.0 mm
06:32 AM 53.8°F12.1°C 50.4°F10.2°C 88% Calm Calm -- 30.22 in1023.4 mb - 0.00 in0.0 mm 0.00 in0.0 mm
06:37 AM 54.1°F12.3°C 50.4°F10.2°C 87% Calm Calm -- 30.21 in1023.0 mb - 0.00 in0.0 mm 0.00 in0.0 mm
06:42 AM 54.7°F12.6°C 50.5°F10.3°C 86% Calm Calm -- 30.21 in1023.0 mb - 0.00 in0.0 mm 0.00 in0.0 mm
06:47 AM 55.0°F12.8°C 50.4°F10.2°C 84% Calm Calm -- 30.21 in1023.0 mb - 0.00 in0.0 mm 0.00 in0.0 mm
06:52 AM 55.0°F12.8°C 50.4°F10.2°C 84% Calm Calm -- 30.21 in1023.0 mb - 0.00 in0.0 mm 0.00 in0.0 mm
06:57 AM 55.6°F13.1°C 50.5°F10.3°C 83% Calm Calm -- 30.21 in1023.0 mb - 0.00 in0.0 mm 0.00 in0.0 mm
07:02 AM 56.1°F13.4°C 50.7°F10.4°C 82% Calm Calm -- 30.21 in1023.0 mb - 0.00 in0.0 mm 0.00 in0.0 mm
07:07 AM 56.7°F13.7°C 50.9°F10.5°C 81% Calm Calm -- 30.21 in1023.0 mb - 0.00 in0.0 mm 0.00 in0.0 mm
07:12 AM 57.9°F14.4°C 51.4°F10.8°C 79% Calm Calm -- 30.21 in1023.0 mb - 0.00 in0.0 mm 0.00 in0.0 mm
07:17 AM 57.7°F14.3°C 51.3°F10.7°C 79% Calm Calm -- 30.21 in1023.0 mb - 0.00 in0.0 mm 0.00 in0.0 mm
07:22 AM 58.3°F14.6°C 51.4°F10.8°C 78% Calm Calm -- 30.21 in1023.0 mb - 0.00 in0.0 mm 0.00 in0.0 mm
07:27 AM 59.2°F15.1°C 52.0°F11.1°C 77% Calm Calm -- 30.21 in1023.0 mb - 0.00 in0.0 mm 0.00 in0.0 mm
07:32 AM 59.5°F15.3°C 52.0°F11.1°C 76% Calm Calm -- 30.21 in1023.0 mb - 0.00 in0.0 mm 0.00 in0.0 mm
07:37 AM 60.1°F15.6°C 52.5°F11.4°C 76% Calm Calm -- 30.21 in1023.0 mb - 0.00 in0.0 mm 0.00 in0.0 mm
07:42 AM 60.6°F15.9°C 52.7°F11.5°C 75% Calm Calm -- 30.21 in1023.0 mb - 0.00 in0.0 mm 0.00 in0.0 mm
07:47 AM 61.5°F16.4°C 53.2°F11.8°C 74% Calm Calm -- 30.21 in1023.0 mb - 0.00 in0.0 mm 0.00 in0.0 mm
07:53 AM 62.4°F16.9°C 54.0°F12.2°C 74% Calm Calm -- 30.20 in1022.7 mb - 0.00 in0.0 mm 0.00 in0.0 mm
07:57 AM 63.1°F17.3°C 53.6°F12.0°C 71% Calm Calm -- 30.21 in1023.0 mb - 0.00 in0.0 mm 0.00 in0.0 mm
08:02 AM 63.7°F17.6°C 53.8°F12.1°C 70% Calm Calm -- 30.21 in1023.0 mb - 0.00 in0.0 mm 0.00 in0.0 mm
08:07 AM 63.9°F17.7°C 53.1°F11.7°C 68% Calm Calm -- 30.21 in1023.0 mb - 0.00 in0.0 mm 0.00 in0.0 mm
08:12 AM 64.0°F17.8°C 51.6°F10.9°C 64% Calm Calm 0.9 mph1.4 kmh 30.21 in1023.0 mb - 0.00 in0.0 mm 0.00 in0.0 mm
08:17 AM 64.8°F18.2°C 52.7°F11.5°C 65% Calm Calm -- 30.21 in1023.0 mb - 0.00 in0.0 mm 0.00 in0.0 mm
08:22 AM 65.5°F18.6°C 53.1°F11.7°C 64% Calm Calm -- 30.21 in1023.0 mb - 0.00 in0.0 mm 0.00 in0.0 mm
08:27 AM 66.0°F18.9°C 52.7°F11.5°C 62% Calm Calm 2.9 mph4.7 kmh 30.20 in1022.7 mb - 0.00 in0.0 mm 0.00 in0.0 mm
08:32 AM 65.8°F18.8°C 52.0°F11.1°C 61% 0.9 mph SSW1.4 kmh SSW 2.0 mph3.2 kmh 30.21 in1023.0 mb - 0.00 in0.0 mm 0.00 in0.0 mm
08:37 AM 65.8°F18.8°C 52.0°F11.1°C 61% 2.0 mph S3.2 kmh S 4.0 mph6.4 kmh 30.20 in1022.7 mb - 0.00 in0.0 mm 0.00 in0.0 mm
08:42 AM 65.8°F18.8°C 51.1°F10.6°C 59% 2.0 mph SE3.2 kmh SE 0.9 mph1.4 kmh 30.20 in1022.7 mb - 0.00 in0.0 mm 0.00 in0.0 mm
08:47 AM 66.4°F19.1°C 50.2°F10.1°C 56% 2.0 mph S3.2 kmh S 2.9 mph4.7 kmh 30.20 in1022.7 mb - 0.00 in0.0 mm 0.00 in0.0 mm
08:52 AM 66.7°F19.3°C 51.4°F10.8°C 58% 0.9 mph S1.4 kmh S -- 30.20 in1022.7 mb - 0.00 in0.0 mm 0.00 in0.0 mm
09:00 AM 67.1°F19.5°C 51.8°F11.0°C 58% 0.9 mph SSW1.4 kmh SSW 0.9 mph1.4 kmh 30.20 in1022.7 mb - 0.00 in0.0 mm 0.00 in0.0 mm
09:02 AM 67.6°F19.8°C 49.8°F9.9°C 53% 2.0 mph SSW3.2 kmh SSW 2.0 mph3.2 kmh 30.20 in1022.7 mb - 0.00 in0.0 mm 0.00 in0.0 mm
09:07 AM 68.0°F20.0°C 50.7°F10.4°C 54% 2.0 mph SSE3.2 kmh SSE -- 30.20 in1022.7 mb - 0.00 in0.0 mm 0.00 in0.0 mm
09:12 AM 68.2°F20.1°C 50.4°F10.2°C 53% 0.9 mph SSE1.4 kmh SSE -- 30.20 in1022.7 mb - 0.00 in0.0 mm 0.00 in0.0 mm
09:17 AM 68.2°F20.1°C 50.4°F10.2°C 53% 2.0 mph SE3.2 kmh SE -- 30.20 in1022.7 mb - 0.00 in0.0 mm 0.00 in0.0 mm
09:22 AM 68.7°F20.4°C 51.4°F10.8°C 54% 0.9 mph WSW1.4 kmh WSW -- 30.20 in1022.7 mb - 0.00 in0.0 mm 0.00 in0.0 mm
09:27 AM 69.1°F20.6°C 50.7°F10.4°C 52% Calm Calm -- 30.20 in1022.7 mb - 0.00 in0.0 mm 0.00 in0.0 mm
09:32 AM 69.1°F20.6°C 49.6°F9.8°C 50% 0.9 mph SSE1.4 kmh SSE 2.0 mph3.2 kmh 30.20 in1022.7 mb - 0.00 in0.0 mm 0.00 in0.0 mm
09:37 AM 69.3°F20.7°C 50.9°F10.5°C 52% 2.0 mph SSE3.2 kmh SSE -- 30.19 in1022.4 mb - 0.00 in0.0 mm 0.00 in0.0 mm
09:42 AM 69.6°F20.9°C 50.2°F10.1°C 50% 2.0 mph S3.2 kmh S 4.0 mph6.4 kmh 30.19 in1022.4 mb - 0.00 in0.0 mm 0.00 in0.0 mm
09:47 AM 69.4°F20.8°C 48.9°F9.4°C 48% 2.9 mph S4.7 kmh S 2.0 mph3.2 kmh 30.19 in1022.4 mb - 0.00 in0.0 mm 0.00 in0.0 mm
09:52 AM 69.6°F20.9°C 50.7°F10.4°C 51% 2.9 mph SSW4.7 kmh SSW 6.0 mph9.7 kmh 30.19 in1022.4 mb - 0.00 in0.0 mm 0.00 in0.0 mm
09:57 AM 69.4°F20.8°C 50.0°F10.0°C 50% 2.0 mph SW3.2 kmh SW 2.0 mph3.2 kmh 30.19 in1022.4 mb - 0.00 in0.0 mm 0.00 in0.0 mm
10:02 AM 70.0°F21.1°C 50.0°F10.0°C 49% 2.0 mph SSW3.2 kmh SSW 2.0 mph3.2 kmh 30.19 in1022.4 mb - 0.00 in0.0 mm 0.00 in0.0 mm
10:07 AM 70.3°F21.3°C 50.4°F10.2°C 49% 0.9 mph SW1.4 kmh SW 4.9 mph7.9 kmh 30.19 in1022.4 mb - 0.00 in0.0 mm 0.00 in0.0 mm
10:12 AM 70.5°F21.4°C 50.4°F10.2°C 49% 2.0 mph SW3.2 kmh SW 6.0 mph9.7 kmh 30.19 in1022.4 mb - 0.00 in0.0 mm 0.00 in0.0 mm
10:17 AM 70.5°F21.4°C 49.3°F9.6°C 47% 2.0 mph SW3.2 kmh SW 2.0 mph3.2 kmh 30.19 in1022.4 mb - 0.00 in0.0 mm 0.00 in0.0 mm
10:22 AM 70.9°F21.6°C 49.1°F9.5°C 46% 2.0 mph S3.2 kmh S -- 30.19 in1022.4 mb - 0.00 in0.0 mm 0.00 in0.0 mm
10:27 AM 71.2°F21.8°C 50.0°F10.0°C 47% 2.0 mph SW3.2 kmh SW -- 30.19 in1022.4 mb - 0.00 in0.0 mm 0.00 in0.0 mm
10:32 AM 71.4°F21.9°C 49.6°F9.8°C 46% 2.9 mph S4.7 kmh S 4.0 mph6.4 kmh 30.19 in1022.4 mb - 0.00 in0.0 mm 0.00 in0.0 mm
10:37 AM 71.4°F21.9°C 50.2°F10.1°C 47% 2.0 mph SE3.2 kmh SE -- 30.19 in1022.4 mb - 0.00 in0.0 mm 0.00 in0.0 mm
10:42 AM 72.1°F22.3°C 49.6°F9.8°C 45% 0.9 mph SW1.4 kmh SW -- 30.19 in1022.4 mb - 0.00 in0.0 mm 0.00 in0.0 mm
10:47 AM 72.7°F22.6°C 51.8°F11.0°C 48% 0.9 mph SSW1.4 kmh SSW -- 30.19 in1022.4 mb - 0.00 in0.0 mm 0.00 in0.0 mm
10:52 AM 72.1°F22.3°C 51.4°F10.8°C 48% 2.0 mph SSW3.2 kmh SSW -- 30.19 in1022.4 mb - 0.00 in0.0 mm 0.00 in0.0 mm
10:57 AM 72.0°F22.2°C 50.7°F10.4°C 47% 2.9 mph S4.7 kmh S 4.0 mph6.4 kmh 30.19 in1022.4 mb - 0.00 in0.0 mm 0.00 in0.0 mm
11:02 AM 72.1°F22.3°C 50.2°F10.1°C 46% 2.9 mph S4.7 kmh S 6.0 mph9.7 kmh 30.19 in1022.4 mb - 0.00 in0.0 mm 0.00 in0.0 mm
11:07 AM 72.1°F22.3°C 49.6°F9.8°C 45% 2.0 mph SW3.2 kmh SW -- 30.19 in1022.4 mb - 0.00 in0.0 mm 0.00 in0.0 mm
11:12 AM 72.0°F22.2°C 49.5°F9.7°C 45% 2.0 mph SW3.2 kmh SW 2.0 mph3.2 kmh 30.18 in1022.0 mb - 0.00 in0.0 mm 0.00 in0.0 mm
11:17 AM 72.5°F22.5°C 50.0°F10.0°C 45% 2.0 mph S3.2 kmh S 4.0 mph6.4 kmh 30.19 in1022.4 mb - 0.00 in0.0 mm 0.00 in0.0 mm
11:22 AM 72.9°F22.7°C 50.4°F10.2°C 45% 2.9 mph ESE4.7 kmh ESE -- 30.19 in1022.4 mb - 0.00 in0.0 mm 0.00 in0.0 mm
11:27 AM 72.3°F22.4°C 49.8°F9.9°C 45% 2.9 mph S4.7 kmh S 4.9 mph7.9 kmh 30.19 in1022.4 mb - 0.00 in0.0 mm 0.00 in0.0 mm
11:32 AM 72.7°F22.6°C 50.2°F10.1°C 45% 2.9 mph S4.7 kmh S 2.0 mph3.2 kmh 30.19 in1022.4 mb - 0.00 in0.0 mm 0.00 in0.0 mm
11:37 AM 73.0°F22.8°C 51.1°F10.6°C 46% 2.0 mph SSW3.2 kmh SSW -- 30.18 in1022.0 mb - 0.00 in0.0 mm 0.00 in0.0 mm
11:42 AM 72.9°F22.7°C 50.9°F10.5°C 46% 0.9 mph NW1.4 kmh NW -- 30.18 in1022.0 mb - 0.00 in0.0 mm 0.00 in0.0 mm
11:47 AM 73.0°F22.8°C 50.4°F10.2°C 45% 0.9 mph NW1.4 kmh NW 4.9 mph7.9 kmh 30.18 in1022.0 mb - 0.00 in0.0 mm 0.00 in0.0 mm
11:52 AM 73.2°F22.9°C 50.5°F10.3°C 45% 2.0 mph NW3.2 kmh NW -- 30.18 in1022.0 mb - 0.00 in0.0 mm 0.00 in0.0 mm
11:57 AM 73.2°F22.9°C 50.5°F10.3°C 45% 2.9 mph WNW4.7 kmh WNW 2.0 mph3.2 kmh 30.18 in1022.0 mb - 0.00 in0.0 mm 0.00 in0.0 mm
12:02 PM 73.8°F23.2°C 51.1°F10.6°C 45% 2.0 mph W3.2 kmh W -- 30.17 in1021.7 mb - 0.00 in0.0 mm 0.00 in0.0 mm
12:07 PM 74.5°F23.6°C 52.3°F11.3°C 46% 0.9 mph S1.4 kmh S 6.9 mph11.1 kmh 30.17 in1021.7 mb - 0.00 in0.0 mm 0.00 in0.0 mm
12:12 PM 74.1°F23.4°C 50.2°F10.1°C 43% 2.9 mph SSW4.7 kmh SSW 4.0 mph6.4 kmh 30.17 in1021.7 mb - 0.00 in0.0 mm 0.00 in0.0 mm
12:17 PM 74.5°F23.6°C 51.8°F11.0°C 45% 2.9 mph SSW4.7 kmh SSW 6.0 mph9.7 kmh 30.17 in1021.7 mb - 0.00 in0.0 mm 0.00 in0.0 mm
12:22 PM 74.7°F23.7°C 50.7°F10.4°C 43% 2.9 mph SE4.7 kmh SE 2.9 mph4.7 kmh 30.17 in1021.7 mb - 0.00 in0.0 mm 0.00 in0.0 mm
12:27 PM 74.5°F23.6°C 49.8°F9.9°C 42% 2.9 mph S4.7 kmh S 0.9 mph1.4 kmh 30.17 in1021.7 mb - 0.00 in0.0 mm 0.00 in0.0 mm
12:32 PM 74.3°F23.5°C 50.4°F10.2°C 43% 2.0 mph WNW3.2 kmh WNW -- 30.17 in1021.7 mb - 0.00 in0.0 mm 0.00 in0.0 mm
12:37 PM 74.8°F23.8°C 50.9°F10.5°C 43% 2.0 mph SW3.2 kmh SW 4.0 mph6.4 kmh 30.17 in1021.7 mb - 0.00 in0.0 mm 0.00 in0.0 mm
12:42 PM 74.7°F23.7°C 50.0°F10.0°C 42% 2.9 mph SW4.7 kmh SW 2.9 mph4.7 kmh 30.17 in1021.7 mb - 0.00 in0.0 mm 0.00 in0.0 mm
12:47 PM 74.8°F23.8°C 49.6°F9.8°C 41% 0.9 mph WNW1.4 kmh WNW 2.0 mph3.2 kmh 30.17 in1021.7 mb - 0.00 in0.0 mm 0.00 in0.0 mm
12:52 PM 74.8°F23.8°C 56.5°F13.6°C 53% 2.0 mph SSW3.2 kmh SSW -- 30.16 in1021.3 mb - 0.00 in0.0 mm 0.00 in0.0 mm
12:57 PM 75.0°F23.9°C 54.5°F12.5°C 49% 2.0 mph W3.2 kmh W -- 30.16 in1021.3 mb - 0.00 in0.0 mm 0.00 in0.0 mm
01:02 PM 75.4°F24.1°C 55.4°F13.0°C 50% 2.0 mph NW3.2 kmh NW 4.0 mph6.4 kmh 30.16 in1021.3 mb - 0.00 in0.0 mm 0.00 in0.0 mm
01:07 PM 75.2°F24.0°C 56.8°F13.8°C 53% 4.9 mph NW7.9 kmh NW 4.0 mph6.4 kmh 30.16 in1021.3 mb - 0.00 in0.0 mm 0.00 in0.0 mm
01:12 PM 74.1°F23.4°C 56.5°F13.6°C 54% 6.0 mph NNW9.7 kmh NNW 4.0 mph6.4 kmh 30.16 in1021.3 mb - 0.00 in0.0 mm 0.00 in0.0 mm
01:17 PM 73.6°F23.1°C 57.9°F14.4°C 58% 4.9 mph NNW7.9 kmh NNW 2.0 mph3.2 kmh 30.16 in1021.3 mb - 0.00 in0.0 mm 0.00 in0.0 mm
01:22 PM 74.5°F23.6°C 57.2°F14.0°C 55% 4.0 mph WNW6.4 kmh WNW 4.9 mph7.9 kmh 30.16 in1021.3 mb - 0.00 in0.0 mm 0.00 in0.0 mm
01:27 PM 74.1°F23.4°C 57.9°F14.4°C 57% 4.0 mph W6.4 kmh W 10.1 mph16.3 kmh 30.16 in1021.3 mb - 0.00 in0.0 mm 0.00 in0.0 mm
01:32 PM 73.9°F23.3°C 57.2°F14.0°C 56% 6.0 mph NW9.7 kmh NW 0.9 mph1.4 kmh 30.16 in1021.3 mb - 0.00 in0.0 mm 0.00 in0.0 mm
01:37 PM 74.5°F23.6°C 57.7°F14.3°C 56% 4.9 mph NNW7.9 kmh NNW 2.9 mph4.7 kmh 30.15 in1021.0 mb - 0.00 in0.0 mm 0.00 in0.0 mm
01:42 PM 74.8°F23.8°C 57.6°F14.2°C 55% 4.9 mph NNW7.9 kmh NNW 8.9 mph14.3 kmh 30.15 in1021.0 mb - 0.00 in0.0 mm 0.00 in0.0 mm
01:47 PM 73.8°F23.2°C 57.0°F13.9°C 56% 4.0 mph W6.4 kmh W -- 30.15 in1021.0 mb - 0.00 in0.0 mm 0.00 in0.0 mm
01:52 PM 73.8°F23.2°C 57.6°F14.2°C 57% 2.9 mph WSW4.7 kmh WSW 4.9 mph7.9 kmh 30.15 in1021.0 mb - 0.00 in0.0 mm 0.00 in0.0 mm
01:57 PM 74.5°F23.6°C 58.3°F14.6°C 57% 2.9 mph WNW4.7 kmh WNW 4.9 mph7.9 kmh 30.15 in1021.0 mb - 0.00 in0.0 mm 0.00 in0.0 mm
02:02 PM 73.8°F23.2°C 56.7°F13.7°C 55% 6.0 mph NW9.7 kmh NW 6.9 mph11.1 kmh 30.15 in1021.0 mb - 0.00 in0.0 mm 0.00 in0.0 mm
02:07 PM 73.0°F22.8°C 56.5°F13.6°C 56% 4.9 mph N7.9 kmh N 6.0 mph9.7 kmh 30.15 in1021.0 mb - 0.00 in0.0 mm 0.00 in0.0 mm
02:12 PM 72.9°F22.7°C 55.2°F12.9°C 54% 2.9 mph W4.7 kmh W -- 30.14 in1020.7 mb - 0.00 in0.0 mm 0.00 in0.0 mm
02:17 PM 72.5°F22.5°C 56.5°F13.6°C 57% 0.9 mph NW1.4 kmh NW -- 30.14 in1020.7 mb - 0.00 in0.0 mm 0.00 in0.0 mm
02:22 PM 72.5°F22.5°C 56.5°F13.6°C 57% 0.9 mph NW1.4 kmh NW 2.0 mph3.2 kmh 30.14 in1020.7 mb - 0.00 in0.0 mm 0.00 in0.0 mm
02:27 PM 73.4°F23.0°C 57.2°F14.0°C 57% 2.0 mph NW3.2 kmh NW 4.9 mph7.9 kmh 30.14 in1020.7 mb - 0.00 in0.0 mm 0.00 in0.0 mm
02:32 PM 74.1°F23.4°C 55.9°F13.3°C 53% 2.9 mph NW4.7 kmh NW 6.0 mph9.7 kmh 30.14 in1020.7 mb - 0.00 in0.0 mm 0.00 in0.0 mm
02:37 PM 74.1°F23.4°C 57.4°F14.1°C 56% 4.0 mph WNW6.4 kmh WNW 2.9 mph4.7 kmh 30.14 in1020.7 mb - 0.00 in0.0 mm 0.00 in0.0 mm
02:42 PM 74.5°F23.6°C 57.7°F14.3°C 56% 4.9 mph WNW7.9 kmh WNW 6.9 mph11.1 kmh 30.13 in1020.3 mb - 0.00 in0.0 mm 0.00 in0.0 mm
02:47 PM 74.7°F23.7°C 57.9°F14.4°C 56% 6.0 mph W9.7 kmh W 6.0 mph9.7 kmh 30.13 in1020.3 mb - 0.00 in0.0 mm 0.00 in0.0 mm
02:52 PM 73.9°F23.3°C 56.8°F13.8°C 55% 6.9 mph NW11.1 kmh NW 12.1 mph19.5 kmh 30.13 in1020.3 mb - 0.00 in0.0 mm 0.00 in0.0 mm
02:57 PM 73.2°F22.9°C 56.7°F13.7°C 56% 6.0 mph W9.7 kmh W 6.0 mph9.7 kmh 30.13 in1020.3 mb - 0.00 in0.0 mm 0.00 in0.0 mm
03:02 PM 72.9°F22.7°C 56.7°F13.7°C 57% 4.0 mph NW6.4 kmh NW 4.0 mph6.4 kmh 30.13 in1020.3 mb - 0.00 in0.0 mm 0.00 in0.0 mm
03:07 PM 73.8°F23.2°C 57.0°F13.9°C 56% 2.9 mph W4.7 kmh W 2.0 mph3.2 kmh 30.13 in1020.3 mb - 0.00 in0.0 mm 0.00 in0.0 mm
03:12 PM 73.4°F23.0°C 56.3°F13.5°C 55% 4.0 mph WNW6.4 kmh WNW 0.9 mph1.4 kmh 30.12 in1020.0 mb - 0.00 in0.0 mm 0.00 in0.0 mm
03:17 PM 73.4°F23.0°C 56.7°F13.7°C 56% 4.0 mph W6.4 kmh W -- 30.12 in1020.0 mb - 0.00 in0.0 mm 0.00 in0.0 mm
03:22 PM 73.2°F22.9°C 56.7°F13.7°C 56% 2.0 mph NW3.2 kmh NW 2.0 mph3.2 kmh 30.12 in1020.0 mb - 0.00 in0.0 mm 0.00 in0.0 mm
03:27 PM 73.6°F23.1°C 56.8°F13.8°C 56% 2.0 mph W3.2 kmh W -- 30.12 in1020.0 mb - 0.00 in0.0 mm 0.00 in0.0 mm
03:32 PM 74.7°F23.7°C 57.9°F14.4°C 56% 2.0 mph WNW3.2 kmh WNW 2.0 mph3.2 kmh 30.12 in1020.0 mb - 0.00 in0.0 mm 0.00 in0.0 mm
03:37 PM 73.9°F23.3°C 57.2°F14.0°C 56% 2.0 mph NW3.2 kmh NW 2.0 mph3.2 kmh 30.12 in1020.0 mb - 0.00 in0.0 mm 0.00 in0.0 mm
03:42 PM 73.9°F23.3°C 57.7°F14.3°C 57% 4.0 mph NW6.4 kmh NW 2.9 mph4.7 kmh 30.12 in1020.0 mb - 0.00 in0.0 mm 0.00 in0.0 mm
03:47 PM 73.6°F23.1°C 57.9°F14.4°C 58% 4.0 mph W6.4 kmh W 4.9 mph7.9 kmh 30.12 in1020.0 mb - 0.00 in0.0 mm 0.00 in0.0 mm
03:52 PM 73.2°F22.9°C 57.0°F13.9°C 57% 2.0 mph NW3.2 kmh NW -- 30.12 in1020.0 mb - 0.00 in0.0 mm 0.00 in0.0 mm
03:57 PM 73.2°F22.9°C 57.6°F14.2°C 58% 2.0 mph NW3.2 kmh NW 2.0 mph3.2 kmh 30.12 in1020.0 mb - 0.00 in0.0 mm 0.00 in0.0 mm
04:02 PM 73.4°F23.0°C 56.7°F13.7°C 56% 2.0 mph NW3.2 kmh NW 2.0 mph3.2 kmh 30.12 in1020.0 mb - 0.00 in0.0 mm 0.00 in0.0 mm
04:07 PM 73.2°F22.9°C 57.0°F13.9°C 57% 0.9 mph NNW1.4 kmh NNW 2.9 mph4.7 kmh 30.12 in1020.0 mb - 0.00 in0.0 mm 0.00 in0.0 mm
04:12 PM 73.4°F23.0°C 56.7°F13.7°C 56% 0.9 mph NW1.4 kmh NW 2.9 mph4.7 kmh 30.12 in1020.0 mb - 0.00 in0.0 mm 0.00 in0.0 mm
04:17 PM 73.2°F22.9°C 56.7°F13.7°C 56% 0.9 mph NW1.4 kmh NW 2.0 mph3.2 kmh 30.12 in1020.0 mb - 0.00 in0.0 mm 0.00 in0.0 mm
04:22 PM 72.9°F22.7°C 56.7°F13.7°C 57% 2.0 mph NNW3.2 kmh NNW -- 30.12 in1020.0 mb - 0.00 in0.0 mm 0.00 in0.0 mm
04:27 PM 72.9°F22.7°C 57.7°F14.3°C 59% 0.9 mph NW1.4 kmh NW -- 30.12 in1020.0 mb - 0.00 in0.0 mm 0.00 in0.0 mm
04:32 PM 72.9°F22.7°C 57.7°F14.3°C 59% Calm Calm -- 30.12 in1020.0 mb - 0.00 in0.0 mm 0.00 in0.0 mm
04:37 PM 74.3°F23.5°C 58.6°F14.8°C 58% Calm Calm -- 30.12 in1020.0 mb - 0.00 in0.0 mm 0.00 in0.0 mm
04:42 PM 75.4°F24.1°C 58.1°F14.5°C 55% 0.9 mph NW1.4 kmh NW -- 30.12 in1020.0 mb - 0.00 in0.0 mm 0.00 in0.0 mm
04:47 PM 74.5°F23.6°C 57.7°F14.3°C 56% 0.9 mph W1.4 kmh W 2.9 mph4.7 kmh 30.12 in1020.0 mb - 0.00 in0.0 mm 0.00 in0.0 mm
04:52 PM 74.1°F23.4°C 57.4°F14.1°C 56% 0.9 mph NW1.4 kmh NW 4.0 mph6.4 kmh 30.11 in1019.6 mb - 0.00 in0.0 mm 0.00 in0.0 mm
04:57 PM 74.3°F23.5°C 58.1°F14.5°C 57% 0.9 mph WSW1.4 kmh WSW 2.0 mph3.2 kmh 30.11 in1019.6 mb - 0.00 in0.0 mm 0.00 in0.0 mm
05:02 PM 74.5°F23.6°C 57.7°F14.3°C 56% 2.0 mph NNW3.2 kmh NNW 0.9 mph1.4 kmh 30.11 in1019.6 mb - 0.00 in0.0 mm 0.00 in0.0 mm
05:07 PM 73.8°F23.2°C 57.6°F14.2°C 57% 2.0 mph 3.2 kmh 2.0 mph3.2 kmh 30.11 in1019.6 mb - 0.00 in0.0 mm 0.00 in0.0 mm
05:12 PM 73.8°F23.2°C 58.1°F14.5°C 58% 2.0 mph WNW3.2 kmh WNW 2.0 mph3.2 kmh 30.11 in1019.6 mb - 0.00 in0.0 mm 0.00 in0.0 mm
05:17 PM 73.9°F23.3°C 57.7°F14.3°C 57% 2.9 mph W4.7 kmh W 4.0 mph6.4 kmh 30.11 in1019.6 mb - 0.00 in0.0 mm 0.00 in0.0 mm
05:22 PM 73.9°F23.3°C 57.7°F14.3°C 57% 4.0 mph NW6.4 kmh NW 2.9 mph4.7 kmh 30.11 in1019.6 mb - 0.00 in0.0 mm 0.00 in0.0 mm
05:27 PM 73.8°F23.2°C 58.1°F14.5°C 58% 4.0 mph WNW6.4 kmh WNW 2.9 mph4.7 kmh 30.11 in1019.6 mb - 0.00 in0.0 mm 0.00 in0.0 mm
05:32 PM 73.9°F23.3°C 57.7°F14.3°C 57% 2.9 mph NNW4.7 kmh NNW 0.9 mph1.4 kmh 30.10 in1019.3 mb - 0.00 in0.0 mm 0.00 in0.0 mm
05:37 PM 74.7°F23.7°C 58.5°F14.7°C 57% 2.9 mph NW4.7 kmh NW 4.9 mph7.9 kmh 30.10 in1019.3 mb - 0.00 in0.0 mm 0.00 in0.0 mm
05:42 PM 73.9°F23.3°C 57.7°F14.3°C 57% 2.9 mph NW4.7 kmh NW -- 30.10 in1019.3 mb - 0.00 in0.0 mm 0.00 in0.0 mm
05:47 PM 73.2°F22.9°C 57.6°F14.2°C 58% 2.0 mph NNW3.2 kmh NNW 2.0 mph3.2 kmh 30.10 in1019.3 mb - 0.00 in0.0 mm 0.00 in0.0 mm
05:52 PM 73.2°F22.9°C 57.0°F13.9°C 57% 0.9 mph NNW1.4 kmh NNW -- 30.10 in1019.3 mb - 0.00 in0.0 mm 0.00 in0.0 mm
05:57 PM 73.0°F22.8°C 57.4°F14.1°C 58% 0.9 mph NW1.4 kmh NW -- 30.10 in1019.3 mb - 0.00 in0.0 mm 0.00 in0.0 mm
06:02 PM 72.9°F22.7°C 57.7°F14.3°C 59% Calm Calm -- 30.10 in1019.3 mb - 0.00 in0.0 mm 0.00 in0.0 mm
06:07 PM 72.7°F22.6°C 57.9°F14.4°C 60% Calm Calm -- 30.10 in1019.3 mb - 0.00 in0.0 mm 0.00 in0.0 mm
06:12 PM 72.5°F22.5°C 57.7°F14.3°C 60% 0.9 mph NW1.4 kmh NW 0.9 mph1.4 kmh 30.10 in1019.3 mb - 0.00 in0.0 mm 0.00 in0.0 mm
06:17 PM 72.1°F22.3°C 57.6°F14.2°C 60% 0.9 mph NW1.4 kmh NW -- 30.10 in1019.3 mb - 0.00 in0.0 mm 0.00 in0.0 mm
06:22 PM 72.1°F22.3°C 57.6°F14.2°C 60% Calm Calm -- 30.10 in1019.3 mb - 0.00 in0.0 mm 0.00 in0.0 mm
06:27 PM 72.7°F22.6°C 57.6°F14.2°C 59% Calm Calm -- 30.10 in1019.3 mb - 0.00 in0.0 mm 0.00 in0.0 mm
06:32 PM 73.0°F22.8°C 57.9°F14.4°C 59% Calm Calm 2.9 mph4.7 kmh 30.10 in1019.3 mb - 0.00 in0.0 mm 0.00 in0.0 mm
06:37 PM 72.3°F22.4°C 58.6°F14.8°C 62% 0.9 mph NW1.4 kmh NW -- 30.10 in1019.3 mb - 0.00 in0.0 mm 0.00 in0.0 mm
06:42 PM 71.8°F22.1°C 58.1°F14.5°C 62% 0.9 mph NNW1.4 kmh NNW -- 30.10 in1019.3 mb - 0.00 in0.0 mm 0.00 in0.0 mm
06:47 PM 71.4°F21.9°C 58.6°F14.8°C 64% Calm Calm -- 30.10 in1019.3 mb - 0.00 in0.0 mm 0.00 in0.0 mm
06:52 PM 71.4°F21.9°C 58.6°F14.8°C 64% Calm Calm -- 30.10 in1019.3 mb - 0.00 in0.0 mm 0.00 in0.0 mm
06:57 PM 71.2°F21.8°C 58.8°F14.9°C 65% Calm Calm -- 30.10 in1019.3 mb - 0.00 in0.0 mm 0.00 in0.0 mm
07:02 PM 71.1°F21.7°C 58.6°F14.8°C 65% Calm Calm -- 30.10 in1019.3 mb - 0.00 in0.0 mm 0.00 in0.0 mm
07:07 PM 70.9°F21.6°C 59.0°F15.0°C 66% Calm Calm -- 30.10 in1019.3 mb - 0.00 in0.0 mm 0.00 in0.0 mm
07:12 PM 70.5°F21.4°C 58.6°F14.8°C 66% Calm Calm -- 30.10 in1019.3 mb - 0.00 in0.0 mm 0.00 in0.0 mm
07:17 PM 70.3°F21.3°C 58.8°F14.9°C 67% Calm Calm -- 30.09 in1019.0 mb - 0.00 in0.0 mm 0.00 in0.0 mm
07:22 PM 70.2°F21.2°C 59.2°F15.1°C 68% Calm Calm -- 30.10 in1019.3 mb - 0.00 in0.0 mm 0.00 in0.0 mm
07:27 PM 69.8°F21.0°C 59.2°F15.1°C 69% Calm Calm -- 30.10 in1019.3 mb - 0.00 in0.0 mm 0.00 in0.0 mm
07:32 PM 69.3°F20.7°C 58.6°F14.8°C 69% Calm Calm -- 30.10 in1019.3 mb - 0.00 in0.0 mm 0.00 in0.0 mm
07:37 PM 68.7°F20.4°C 58.5°F14.7°C 70% Calm Calm -- 30.10 in1019.3 mb - 0.00 in0.0 mm 0.00 in0.0 mm
07:42 PM 68.4°F20.2°C 58.6°F14.8°C 71% Calm Calm -- 30.10 in1019.3 mb - 0.00 in0.0 mm 0.00 in0.0 mm
07:47 PM 67.8°F19.9°C 58.5°F14.7°C 72% Calm Calm -- 30.10 in1019.3 mb - 0.00 in0.0 mm 0.00 in0.0 mm
07:52 PM 67.5°F19.7°C 58.1°F14.5°C 72% Calm Calm -- 30.10 in1019.3 mb - 0.00 in0.0 mm 0.00 in0.0 mm
07:57 PM 66.9°F19.4°C 57.9°F14.4°C 73% Calm Calm -- 30.10 in1019.3 mb - 0.00 in0.0 mm 0.00 in0.0 mm
08:02 PM 66.2°F19.0°C 57.7°F14.3°C 74% Calm Calm -- 30.10 in1019.3 mb - 0.00 in0.0 mm 0.00 in0.0 mm
08:07 PM 65.7°F18.7°C 56.8°F13.8°C 73% Calm Calm -- 30.10 in1019.3 mb - 0.00 in0.0 mm 0.00 in0.0 mm
08:12 PM 65.1°F18.4°C 56.3°F13.5°C 73% Calm Calm -- 30.10 in1019.3 mb - 0.00 in0.0 mm 0.00 in0.0 mm
08:17 PM 64.9°F18.3°C 56.1°F13.4°C 73% Calm Calm -- 30.10 in1019.3 mb - 0.00 in0.0 mm 0.00 in0.0 mm
08:22 PM 64.6°F18.1°C 55.4°F13.0°C 72% Calm Calm -- 30.10 in1019.3 mb - 0.00 in0.0 mm 0.00 in0.0 mm
08:27 PM 64.4°F18.0°C 54.9°F12.7°C 71% Calm Calm -- 30.10 in1019.3 mb - 0.00 in0.0 mm 0.00 in0.0 mm
08:32 PM 64.0°F17.8°C 54.9°F12.7°C 72% Calm Calm -- 30.11 in1019.6 mb - 0.00 in0.0 mm 0.00 in0.0 mm
08:37 PM 63.9°F17.7°C 54.7°F12.6°C 72% Calm Calm -- 30.11 in1019.6 mb - 0.00 in0.0 mm 0.00 in0.0 mm
08:47 PM 63.1°F17.3°C 54.3°F12.4°C 73% Calm Calm -- 30.11 in1019.6 mb - 0.00 in0.0 mm 0.00 in0.0 mm
08:52 PM 62.8°F17.1°C 54.0°F12.2°C 73% Calm Calm -- 30.11 in1019.6 mb - 0.00 in0.0 mm 0.00 in0.0 mm
08:57 PM 62.4°F16.9°C 53.6°F12.0°C 73% Calm Calm -- 30.11 in1019.6 mb - 0.00 in0.0 mm 0.00 in0.0 mm
09:02 PM 62.2°F16.8°C 53.8°F12.1°C 74% Calm Calm -- 30.11 in1019.6 mb - 0.00 in0.0 mm 0.00 in0.0 mm
09:07 PM 61.9°F16.6°C 53.4°F11.9°C 74% Calm Calm -- 30.11 in1019.6 mb - 0.00 in0.0 mm 0.00 in0.0 mm
09:12 PM 61.7°F16.5°C 53.2°F11.8°C 74% Calm Calm -- 30.11 in1019.6 mb - 0.00 in0.0 mm 0.00 in0.0 mm
09:17 PM 61.5°F16.4°C 53.6°F12.0°C 75% Calm Calm -- 30.12 in1020.0 mb - 0.00 in0.0 mm 0.00 in0.0 mm
09:22 PM 61.2°F16.2°C 53.2°F11.8°C 75% Calm Calm -- 30.11 in1019.6 mb - 0.00 in0.0 mm 0.00 in0.0 mm
09:27 PM 60.8°F16.0°C 52.9°F11.6°C 75% Calm Calm -- 30.12 in1020.0 mb - 0.00 in0.0 mm 0.00 in0.0 mm
09:32 PM 60.4°F15.8°C 53.2°F11.8°C 77% Calm Calm -- 30.12 in1020.0 mb - 0.00 in0.0 mm 0.00 in0.0 mm
09:37 PM 60.3°F15.7°C 53.1°F11.7°C 77% Calm Calm -- 30.12 in1020.0 mb - 0.00 in0.0 mm 0.00 in0.0 mm
09:42 PM 60.1°F15.6°C 53.2°F11.8°C 78% Calm Calm -- 30.12 in1020.0 mb - 0.00 in0.0 mm 0.00 in0.0 mm
09:47 PM 59.7°F15.4°C 52.9°F11.6°C 78% Calm Calm -- 30.11 in1019.6 mb - 0.00 in0.0 mm 0.00 in0.0 mm
09:52 PM 59.7°F15.4°C 52.9°F11.6°C 78% Calm Calm -- 30.11 in1019.6 mb - 0.00 in0.0 mm 0.00 in0.0 mm
10:02 PM 59.5°F15.3°C 52.7°F11.5°C 78% Calm Calm -- 30.12 in1020.0 mb - 0.00 in0.0 mm 0.00 in0.0 mm
10:07 PM 59.2°F15.1°C 52.3°F11.3°C 78% Calm Calm -- 30.12 in1020.0 mb - 0.00 in0.0 mm 0.00 in0.0 mm
10:12 PM 59.2°F15.1°C 52.3°F11.3°C 78% Calm Calm -- 30.12 in1020.0 mb - 0.00 in0.0 mm 0.00 in0.0 mm
10:17 PM 59.0°F15.0°C 52.2°F11.2°C 78% Calm Calm -- 30.12 in1020.0 mb - 0.00 in0.0 mm 0.00 in0.0 mm
10:22 PM 58.8°F14.9°C 52.0°F11.1°C 78% Calm Calm -- 30.12 in1020.0 mb - 0.00 in0.0 mm 0.00 in0.0 mm
10:27 PM 58.6°F14.8°C 51.8°F11.0°C 78% Calm Calm -- 30.12 in1020.0 mb - 0.00 in0.0 mm 0.00 in0.0 mm
10:32 PM 58.6°F14.8°C 51.8°F11.0°C 78% Calm Calm -- 30.12 in1020.0 mb - 0.00 in0.0 mm 0.00 in0.0 mm
10:37 PM 58.6°F14.8°C 51.8°F11.0°C 78% Calm Calm -- 30.12 in1020.0 mb - 0.00 in0.0 mm 0.00 in0.0 mm
10:42 PM 58.5°F14.7°C 51.6°F10.9°C 78% Calm Calm -- 30.12 in1020.0 mb - 0.00 in0.0 mm 0.00 in0.0 mm
10:47 PM 58.3°F14.6°C 51.4°F10.8°C 78% Calm Calm -- 30.12 in1020.0 mb - 0.00 in0.0 mm 0.00 in0.0 mm
10:52 PM 58.3°F14.6°C 51.8°F11.0°C 79% Calm Calm -- 30.12 in1020.0 mb - 0.00 in0.0 mm 0.00 in0.0 mm
10:57 PM 57.9°F14.4°C 51.4°F10.8°C 79% Calm Calm -- 30.12 in1020.0 mb - 0.00 in0.0 mm 0.00 in0.0 mm
11:02 PM 57.7°F14.3°C 51.3°F10.7°C 79% Calm Calm -- 30.12 in1020.0 mb - 0.00 in0.0 mm 0.00 in0.0 mm
11:07 PM 57.7°F14.3°C 51.3°F10.7°C 79% Calm Calm -- 30.12 in1020.0 mb - 0.00 in0.0 mm 0.00 in0.0 mm
11:12 PM 57.6°F14.2°C 51.4°F10.8°C 80% Calm Calm -- 30.12 in1020.0 mb - 0.00 in0.0 mm 0.00 in0.0 mm
11:17 PM 57.6°F14.2°C 51.1°F10.6°C 79% Calm Calm -- 30.12 in1020.0 mb - 0.00 in0.0 mm 0.00 in0.0 mm
11:22 PM 57.6°F14.2°C 51.1°F10.6°C 79% Calm Calm -- 30.12 in1020.0 mb - 0.00 in0.0 mm 0.00 in0.0 mm
11:27 PM 57.4°F14.1°C 50.9°F10.5°C 79% Calm Calm -- 30.12 in1020.0 mb - 0.00 in0.0 mm 0.00 in0.0 mm
11:32 PM 57.2°F14.0°C 50.7°F10.4°C 79% Calm Calm -- 30.12 in1020.0 mb - 0.00 in0.0 mm 0.00 in0.0 mm
11:37 PM 57.0°F13.9°C 50.5°F10.3°C 79% Calm Calm -- 30.12 in1020.0 mb - 0.00 in0.0 mm 0.00 in0.0 mm
11:42 PM 57.0°F13.9°C 50.5°F10.3°C 79% Calm Calm -- 30.11 in1019.6 mb - 0.00 in0.0 mm 0.00 in0.0 mm
11:47 PM 56.8°F13.8°C 50.4°F10.2°C 79% Calm Calm -- 30.12 in1020.0 mb - 0.00 in0.0 mm 0.00 in0.0 mm
11:52 PM 56.7°F13.7°C 50.5°F10.3°C 80% Calm Calm -- 30.11 in1019.6 mb - 0.00 in0.0 mm 0.00 in0.0 mm
11:57 PM 56.7°F13.7°C 50.5°F10.3°C 80% Calm Calm -- 30.12 in1020.0 mb - 0.00 in0.0 mm 0.00 in0.0 mm